sensor_id;sensor_type;location;lat;lon;timestamp;temperature;humidity
612;DHT22;293;53.888;11.464;2023-04-01T00:00:24;12.00;99.90
612;DHT22;293;53.888;11.464;2023-04-01T00:02:51;11.90;99.90
612;DHT22;293;53.888;11.464;2023-04-01T00:05:18;12.00;99.90
612;DHT22;293;53.888;11.464;2023-04-01T00:07:46;11.80;99.90
612;DHT22;293;53.888;11.464;2023-04-01T00:10:14;11.50;99.90
612;DHT22;293;53.888;11.464;2023-04-01T00:12:41;11.40;99.90
612;DHT22;293;53.888;11.464;2023-04-01T00:15:10;11.30;99.90
612;DHT22;293;53.888;11.464;2023-04-01T00:17:37;11.20;99.90
612;DHT22;293;53.888;11.464;2023-04-01T00:20:05;11.10;99.90
612;DHT22;293;53.888;11.464;2023-04-01T00:22:33;11.10;99.90
612;DHT22;293;53.888;11.464;2023-04-01T00:25:02;10.90;99.90
612;DHT22;293;53.888;11.464;2023-04-01T00:27:35;10.80;99.90
612;DHT22;293;53.888;11.464;2023-04-01T00:30:04;10.70;99.90
612;DHT22;293;53.888;11.464;2023-04-01T00:32:31;10.60;99.90
612;DHT22;293;53.888;11.464;2023-04-01T00:34:58;10.50;99.90
612;DHT22;293;53.888;11.464;2023-04-01T00:37:25;10.40;99.90
612;DHT22;293;53.888;11.464;2023-04-01T00:39:53;10.30;99.90
612;DHT22;293;53.888;11.464;2023-04-01T00:42:22;10.10;99.90
612;DHT22;293;53.888;11.464;2023-04-01T00:44:51;10.00;99.90
612;DHT22;293;53.888;11.464;2023-04-01T00:47:19;9.90;99.90
612;DHT22;293;53.888;11.464;2023-04-01T00:49:48;9.80;99.90
612;DHT22;293;53.888;11.464;2023-04-01T00:52:20;9.70;99.90
612;DHT22;293;53.888;11.464;2023-04-01T00:54:51;9.60;99.90
612;DHT22;293;53.888;11.464;2023-04-01T00:57:25;9.50;99.90
612;DHT22;293;53.888;11.464;2023-04-01T00:59:55;9.40;99.90
612;DHT22;293;53.888;11.464;2023-04-01T01:02:22;9.40;99.90
612;DHT22;293;53.888;11.464;2023-04-01T01:04:50;9.30;99.90
612;DHT22;293;53.888;11.464;2023-04-01T01:07:23;9.20;99.90
612;DHT22;293;53.888;11.464;2023-04-01T01:09:57;9.20;99.90
612;DHT22;293;53.888;11.464;2023-04-01T01:12:33;9.10;99.90
612;DHT22;293;53.888;11.464;2023-04-01T01:15:09;9.00;99.90
612;DHT22;293;53.888;11.464;2023-04-01T01:17:45;8.90;99.90
612;DHT22;293;53.888;11.464;2023-04-01T01:23:23;8.90;99.90
612;DHT22;293;53.888;11.464;2023-04-01T01:26:12;8.90;99.90
612;DHT22;293;53.888;11.464;2023-04-01T01:28:47;8.90;99.90
612;DHT22;293;53.888;11.464;2023-04-01T01:31:23;8.80;99.90
612;DHT22;293;53.888;11.464;2023-04-01T01:34:02;8.80;99.90
612;DHT22;293;53.888;11.464;2023-04-01T01:36:33;8.80;99.90
612;DHT22;293;53.888;11.464;2023-04-01T01:39:01;8.70;99.90
612;DHT22;293;53.888;11.464;2023-04-01T01:41:29;8.70;99.90
612;DHT22;293;53.888;11.464;2023-04-01T01:43:59;8.70;99.90
612;DHT22;293;53.888;11.464;2023-04-01T01:46:28;8.70;99.90
612;DHT22;293;53.888;11.464;2023-04-01T01:48:57;8.50;99.90
612;DHT22;293;53.888;11.464;2023-04-01T01:51:27;8.50;99.90
612;DHT22;293;53.888;11.464;2023-04-01T01:53:55;8.50;99.90
612;DHT22;293;53.888;11.464;2023-04-01T01:56:26;8.50;99.90
612;DHT22;293;53.888;11.464;2023-04-01T01:58:58;8.50;99.90
612;DHT22;293;53.888;11.464;2023-04-01T02:03:54;8.40;99.90
612;DHT22;293;53.888;11.464;2023-04-01T02:06:23;8.40;99.90
612;DHT22;293;53.888;11.464;2023-04-01T02:08:55;8.40;99.90
612;DHT22;293;53.888;11.464;2023-04-01T02:11:26;8.40;99.90
612;DHT22;293;53.888;11.464;2023-04-01T02:13:56;8.40;99.90
612;DHT22;293;53.888;11.464;2023-04-01T02:16:28;8.40;99.90
612;DHT22;293;53.888;11.464;2023-04-01T02:18:58;8.30;99.90
612;DHT22;293;53.888;11.464;2023-04-01T02:21:29;8.40;99.90
612;DHT22;293;53.888;11.464;2023-04-01T02:24:01;8.30;99.90
612;DHT22;293;53.888;11.464;2023-04-01T02:26:29;8.30;99.90
612;DHT22;293;53.888;11.464;2023-04-01T02:28:57;8.20;99.90
612;DHT22;293;53.888;11.464;2023-04-01T02:31:26;8.10;99.90
612;DHT22;293;53.888;11.464;2023-04-01T02:33:54;8.10;99.90
612;DHT22;293;53.888;11.464;2023-04-01T02:36:21;8.10;99.90
612;DHT22;293;53.888;11.464;2023-04-01T02:38:49;8.10;99.90
612;DHT22;293;53.888;11.464;2023-04-01T02:41:19;8.00;99.90
612;DHT22;293;53.888;11.464;2023-04-01T02:43:46;8.00;99.90
612;DHT22;293;53.888;11.464;2023-04-01T02:46:13;7.90;99.90
612;DHT22;293;53.888;11.464;2023-04-01T02:48:40;7.90;99.90
612;DHT22;293;53.888;11.464;2023-04-01T02:51:07;7.80;99.90
612;DHT22;293;53.888;11.464;2023-04-01T02:53:34;7.80;99.90
612;DHT22;293;53.888;11.464;2023-04-01T02:56:01;7.70;99.90
612;DHT22;293;53.888;11.464;2023-04-01T02:58:29;7.70;99.90
612;DHT22;293;53.888;11.464;2023-04-01T03:00:56;7.70;99.90
612;DHT22;293;53.888;11.464;2023-04-01T03:03:23;7.70;99.90
612;DHT22;293;53.888;11.464;2023-04-01T03:05:50;7.60;99.90
612;DHT22;293;53.888;11.464;2023-04-01T03:08:17;7.50;99.90
612;DHT22;293;53.888;11.464;2023-04-01T03:10:44;7.50;99.90
612;DHT22;293;53.888;11.464;2023-04-01T03:13:11;7.40;99.90
612;DHT22;293;53.888;11.464;2023-04-01T03:15:39;7.40;99.90
612;DHT22;293;53.888;11.464;2023-04-01T03:18:06;7.40;99.90
612;DHT22;293;53.888;11.464;2023-04-01T03:20:32;7.40;99.90
612;DHT22;293;53.888;11.464;2023-04-01T03:22:59;7.40;99.90
612;DHT22;293;53.888;11.464;2023-04-01T03:25:26;7.30;99.90
612;DHT22;293;53.888;11.464;2023-04-01T03:27:54;7.30;99.90
612;DHT22;293;53.888;11.464;2023-04-01T03:30:21;7.20;99.90
612;DHT22;293;53.888;11.464;2023-04-01T03:32:49;7.20;99.90
612;DHT22;293;53.888;11.464;2023-04-01T03:35:16;7.20;99.90
612;DHT22;293;53.888;11.464;2023-04-01T03:37:43;7.20;99.90
612;DHT22;293;53.888;11.464;2023-04-01T03:40:10;7.10;99.90
612;DHT22;293;53.888;11.464;2023-04-01T03:42:37;7.10;99.90
612;DHT22;293;53.888;11.464;2023-04-01T03:45:05;7.10;99.90
612;DHT22;293;53.888;11.464;2023-04-01T03:47:33;7.10;99.90
612;DHT22;293;53.888;11.464;2023-04-01T03:50:02;7.20;99.90
612;DHT22;293;53.888;11.464;2023-04-01T03:52:29;7.10;99.90
612;DHT22;293;53.888;11.464;2023-04-01T03:54:56;7.10;99.90
612;DHT22;293;53.888;11.464;2023-04-01T03:57:23;7.10;99.90
612;DHT22;293;53.888;11.464;2023-04-01T03:59:50;7.00;99.90
612;DHT22;293;53.888;11.464;2023-04-01T04:02:17;7.00;99.90
612;DHT22;293;53.888;11.464;2023-04-01T04:04:44;7.00;99.90
612;DHT22;293;53.888;11.464;2023-04-01T04:07:13;6.90;99.90
612;DHT22;293;53.888;11.464;2023-04-01T04:09:40;7.00;99.90
612;DHT22;293;53.888;11.464;2023-04-01T04:12:07;6.90;99.90
612;DHT22;293;53.888;11.464;2023-04-01T04:14:34;6.90;99.90
612;DHT22;293;53.888;11.464;2023-04-01T04:17:00;6.80;99.90
612;DHT22;293;53.888;11.464;2023-04-01T04:19:31;6.80;99.90
612;DHT22;293;53.888;11.464;2023-04-01T04:21:59;6.80;99.90
612;DHT22;293;53.888;11.464;2023-04-01T04:24:28;6.80;99.90
612;DHT22;293;53.888;11.464;2023-04-01T04:26:55;6.80;99.90
612;DHT22;293;53.888;11.464;2023-04-01T04:29:21;6.80;99.90
612;DHT22;293;53.888;11.464;2023-04-01T04:31:48;6.80;99.90
612;DHT22;293;53.888;11.464;2023-04-01T04:34:15;6.70;99.90
612;DHT22;293;53.888;11.464;2023-04-01T04:36:44;6.80;99.90
612;DHT22;293;53.888;11.464;2023-04-01T04:39:11;6.80;99.90
612;DHT22;293;53.888;11.464;2023-04-01T04:41:39;6.80;99.90
612;DHT22;293;53.888;11.464;2023-04-01T04:44:06;6.70;99.90
612;DHT22;293;53.888;11.464;2023-04-01T04:46:33;6.70;99.90
612;DHT22;293;53.888;11.464;2023-04-01T04:49:01;6.60;99.90
612;DHT22;293;53.888;11.464;2023-04-01T04:51:28;6.60;99.90
612;DHT22;293;53.888;11.464;2023-04-01T04:53:55;6.50;99.90
612;DHT22;293;53.888;11.464;2023-04-01T04:56:23;6.50;99.90
612;DHT22;293;53.888;11.464;2023-04-01T04:58:52;6.50;99.90
612;DHT22;293;53.888;11.464;2023-04-01T05:01:19;6.50;99.90
612;DHT22;293;53.888;11.464;2023-04-01T05:03:46;6.50;99.90
612;DHT22;293;53.888;11.464;2023-04-01T05:06:14;6.40;99.90
612;DHT22;293;53.888;11.464;2023-04-01T05:08:42;6.50;99.90
612;DHT22;293;53.888;11.464;2023-04-01T05:11:11;6.50;99.90
612;DHT22;293;53.888;11.464;2023-04-01T05:13:38;6.50;99.90
612;DHT22;293;53.888;11.464;2023-04-01T05:16:09;6.50;99.90
612;DHT22;293;53.888;11.464;2023-04-01T05:18:36;6.50;99.90
612;DHT22;293;53.888;11.464;2023-04-01T05:21:03;6.60;99.90
612;DHT22;293;53.888;11.464;2023-04-01T05:23:31;6.50;99.90
612;DHT22;293;53.888;11.464;2023-04-01T05:25:59;6.50;99.90
612;DHT22;293;53.888;11.464;2023-04-01T05:28:28;6.50;99.90
612;DHT22;293;53.888;11.464;2023-04-01T05:30:58;6.40;99.90
612;DHT22;293;53.888;11.464;2023-04-01T05:33:27;6.40;99.90
612;DHT22;293;53.888;11.464;2023-04-01T05:35:54;6.40;99.90
612;DHT22;293;53.888;11.464;2023-04-01T05:38:21;6.40;99.90
612;DHT22;293;53.888;11.464;2023-04-01T05:40:48;6.40;99.90
612;DHT22;293;53.888;11.464;2023-04-01T05:43:15;6.40;99.90
612;DHT22;293;53.888;11.464;2023-04-01T05:45:42;6.40;99.90
612;DHT22;293;53.888;11.464;2023-04-01T05:48:08;6.40;99.90
612;DHT22;293;53.888;11.464;2023-04-01T05:50:37;6.30;99.90
612;DHT22;293;53.888;11.464;2023-04-01T05:53:06;6.30;99.90
612;DHT22;293;53.888;11.464;2023-04-01T05:55:35;6.30;99.90
612;DHT22;293;53.888;11.464;2023-04-01T05:58:01;6.20;99.90
612;DHT22;293;53.888;11.464;2023-04-01T06:00:28;6.20;99.90
612;DHT22;293;53.888;11.464;2023-04-01T06:02:58;6.20;99.90
612;DHT22;293;53.888;11.464;2023-04-01T06:05:28;6.20;99.90
612;DHT22;293;53.888;11.464;2023-04-01T06:07:59;6.10;99.90
612;DHT22;293;53.888;11.464;2023-04-01T06:10:43;6.10;99.90
612;DHT22;293;53.888;11.464;2023-04-01T06:13:24;6.10;99.90
612;DHT22;293;53.888;11.464;2023-04-01T06:16:04;6.10;99.90
612;DHT22;293;53.888;11.464;2023-04-01T06:18:53;6.10;99.90
612;DHT22;293;53.888;11.464;2023-04-01T06:21:37;6.10;99.90
612;DHT22;293;53.888;11.464;2023-04-01T06:24:25;6.10;99.90
612;DHT22;293;53.888;11.464;2023-04-01T06:27:01;6.10;99.90
612;DHT22;293;53.888;11.464;2023-04-01T06:29:48;6.10;99.90
612;DHT22;293;53.888;11.464;2023-04-01T06:32:26;6.10;99.90
612;DHT22;293;53.888;11.464;2023-04-01T06:35:12;6.10;99.90
612;DHT22;293;53.888;11.464;2023-04-01T06:38:06;6.10;99.90
612;DHT22;293;53.888;11.464;2023-04-01T06:41:06;6.10;99.90
612;DHT22;293;53.888;11.464;2023-04-01T06:43:49;6.10;99.90
612;DHT22;293;53.888;11.464;2023-04-01T06:46:22;6.10;99.90
612;DHT22;293;53.888;11.464;2023-04-01T06:49:05;6.10;99.90
612;DHT22;293;53.888;11.464;2023-04-01T06:51:39;6.20;99.90
612;DHT22;293;53.888;11.464;2023-04-01T06:54:11;6.10;99.90
612;DHT22;293;53.888;11.464;2023-04-01T06:56:45;6.20;99.90
612;DHT22;293;53.888;11.464;2023-04-01T06:59:17;6.20;99.90
612;DHT22;293;53.888;11.464;2023-04-01T07:01:49;6.10;99.90
612;DHT22;293;53.888;11.464;2023-04-01T07:04:20;6.10;99.90
612;DHT22;293;53.888;11.464;2023-04-01T07:06:51;6.10;99.90
612;DHT22;293;53.888;11.464;2023-04-01T07:09:22;6.10;99.90
612;DHT22;293;53.888;11.464;2023-04-01T07:11:54;6.20;99.90
612;DHT22;293;53.888;11.464;2023-04-01T07:14:27;6.20;99.90
612;DHT22;293;53.888;11.464;2023-04-01T07:16:59;6.30;99.90
612;DHT22;293;53.888;11.464;2023-04-01T07:19:30;6.30;99.90
612;DHT22;293;53.888;11.464;2023-04-01T07:22:02;6.30;99.90
612;DHT22;293;53.888;11.464;2023-04-01T07:24:33;6.30;99.90
612;DHT22;293;53.888;11.464;2023-04-01T07:27:04;6.30;99.90
612;DHT22;293;53.888;11.464;2023-04-01T07:29:32;6.30;99.90
612;DHT22;293;53.888;11.464;2023-04-01T07:32:18;6.30;99.90
612;DHT22;293;53.888;11.464;2023-04-01T07:35:00;6.20;99.90
612;DHT22;293;53.888;11.464;2023-04-01T07:37:34;6.20;99.90
612;DHT22;293;53.888;11.464;2023-04-01T07:40:14;6.20;99.90
612;DHT22;293;53.888;11.464;2023-04-01T07:42:58;6.20;99.90
612;DHT22;293;53.888;11.464;2023-04-01T07:45:31;6.30;99.90
612;DHT22;293;53.888;11.464;2023-04-01T07:48:15;6.20;99.90
612;DHT22;293;53.888;11.464;2023-04-01T07:50:50;6.20;99.90
612;DHT22;293;53.888;11.464;2023-04-01T07:53:28;6.20;99.90
612;DHT22;293;53.888;11.464;2023-04-01T07:56:04;6.10;99.90
612;DHT22;293;53.888;11.464;2023-04-01T07:58:43;6.10;99.90
612;DHT22;293;53.888;11.464;2023-04-01T08:01:20;6.20;99.90
612;DHT22;293;53.888;11.464;2023-04-01T08:04:15;6.20;99.90
612;DHT22;293;53.888;11.464;2023-04-01T08:06:49;6.20;99.90
612;DHT22;293;53.888;11.464;2023-04-01T08:09:25;6.20;99.90
612;DHT22;293;53.888;11.464;2023-04-01T08:12:04;6.30;99.90
612;DHT22;293;53.888;11.464;2023-04-01T08:14:44;6.30;99.90
612;DHT22;293;53.888;11.464;2023-04-01T08:17:16;6.30;99.90
612;DHT22;293;53.888;11.464;2023-04-01T08:19:56;6.30;99.90
612;DHT22;293;53.888;11.464;2023-04-01T08:22:29;6.30;99.90
612;DHT22;293;53.888;11.464;2023-04-01T08:25:00;6.20;99.90
612;DHT22;293;53.888;11.464;2023-04-01T08:27:31;6.20;99.90
612;DHT22;293;53.888;11.464;2023-04-01T08:30:14;6.20;99.90
612;DHT22;293;53.888;11.464;2023-04-01T08:32:46;6.20;99.90
612;DHT22;293;53.888;11.464;2023-04-01T08:35:20;6.20;99.90
612;DHT22;293;53.888;11.464;2023-04-01T08:37:51;6.20;99.90
612;DHT22;293;53.888;11.464;2023-04-01T08:40:37;6.20;99.90
612;DHT22;293;53.888;11.464;2023-04-01T08:43:09;6.20;99.90
612;DHT22;293;53.888;11.464;2023-04-01T08:45:53;6.20;99.90
612;DHT22;293;53.888;11.464;2023-04-01T08:48:47;6.20;99.90
612;DHT22;293;53.888;11.464;2023-04-01T08:51:30;6.20;99.90
612;DHT22;293;53.888;11.464;2023-04-01T08:54:33;6.10;99.90
612;DHT22;293;53.888;11.464;2023-04-01T08:57:08;6.10;99.90
612;DHT22;293;53.888;11.464;2023-04-01T09:00:00;6.10;99.90
612;DHT22;293;53.888;11.464;2023-04-01T09:03:05;6.10;99.90
612;DHT22;293;53.888;11.464;2023-04-01T09:05:47;6.10;99.90
612;DHT22;293;53.888;11.464;2023-04-01T09:08:34;6.00;99.90
612;DHT22;293;53.888;11.464;2023-04-01T09:11:07;6.10;99.90
612;DHT22;293;53.888;11.464;2023-04-01T09:13:56;6.10;99.90
612;DHT22;293;53.888;11.464;2023-04-01T09:16:43;6.10;99.90
612;DHT22;293;53.888;11.464;2023-04-01T09:19:27;6.10;99.90
612;DHT22;293;53.888;11.464;2023-04-01T09:25:26;6.00;99.90
612;DHT22;293;53.888;11.464;2023-04-01T09:27:57;6.10;99.90
612;DHT22;293;53.888;11.464;2023-04-01T09:30:48;6.00;99.90
612;DHT22;293;53.888;11.464;2023-04-01T09:33:49;6.00;99.90
612;DHT22;293;53.888;11.464;2023-04-01T09:36:33;6.10;99.90
612;DHT22;293;53.888;11.464;2023-04-01T09:39:25;6.10;99.90
612;DHT22;293;53.888;11.464;2023-04-01T09:42:06;6.10;99.90
612;DHT22;293;53.888;11.464;2023-04-01T09:44:36;6.00;99.90
612;DHT22;293;53.888;11.464;2023-04-01T09:47:15;6.00;99.90
612;DHT22;293;53.888;11.464;2023-04-01T09:50:04;5.90;99.90
612;DHT22;293;53.888;11.464;2023-04-01T09:52:46;5.90;99.90
612;DHT22;293;53.888;11.464;2023-04-01T09:55:32;5.80;99.90
612;DHT22;293;53.888;11.464;2023-04-01T09:58:19;5.80;99.90
612;DHT22;293;53.888;11.464;2023-04-01T10:01:16;5.80;99.90
612;DHT22;293;53.888;11.464;2023-04-01T10:07:27;5.90;99.90
612;DHT22;293;53.888;11.464;2023-04-01T10:10:29;5.90;99.90
612;DHT22;293;53.888;11.464;2023-04-01T10:13:44;5.90;99.90
612;DHT22;293;53.888;11.464;2023-04-01T10:16:34;5.90;99.90
612;DHT22;293;53.888;11.464;2023-04-01T10:25:52;5.90;99.90
612;DHT22;293;53.888;11.464;2023-04-01T10:28:38;6.00;99.90
612;DHT22;293;53.888;11.464;2023-04-01T10:31:38;5.90;99.90
612;DHT22;293;53.888;11.464;2023-04-01T10:37:32;5.90;99.90
612;DHT22;293;53.888;11.464;2023-04-01T10:40:31;5.90;99.90
612;DHT22;293;53.888;11.464;2023-04-01T10:46:20;5.90;99.90
612;DHT22;293;53.888;11.464;2023-04-01T10:54:47;6.00;99.90
612;DHT22;293;53.888;11.464;2023-04-01T10:57:45;6.00;99.90
612;DHT22;293;53.888;11.464;2023-04-01T11:00:27;6.00;99.90
612;DHT22;293;53.888;11.464;2023-04-01T11:09:32;6.00;99.90
612;DHT22;293;53.888;11.464;2023-04-01T11:12:38;6.00;99.90
612;DHT22;293;53.888;11.464;2023-04-01T11:15:27;6.00;99.90
612;DHT22;293;53.888;11.464;2023-04-01T11:18:41;6.10;99.90
612;DHT22;293;53.888;11.464;2023-04-01T11:21:54;6.20;99.90
612;DHT22;293;53.888;11.464;2023-04-01T11:24:53;6.20;99.90
612;DHT22;293;53.888;11.464;2023-04-01T11:27:42;6.20;99.90
612;DHT22;293;53.888;11.464;2023-04-01T11:30:34;6.20;99.90
612;DHT22;293;53.888;11.464;2023-04-01T11:33:08;6.20;99.90
612;DHT22;293;53.888;11.464;2023-04-01T11:36:03;6.10;99.90
612;DHT22;293;53.888;11.464;2023-04-01T11:38:56;6.10;99.90
612;DHT22;293;53.888;11.464;2023-04-01T11:41:31;6.00;99.90
612;DHT22;293;53.888;11.464;2023-04-01T11:44:20;6.10;99.90
612;DHT22;293;53.888;11.464;2023-04-01T11:47:10;6.10;99.90
612;DHT22;293;53.888;11.464;2023-04-01T11:49:59;6.10;99.90
612;DHT22;293;53.888;11.464;2023-04-01T11:52:46;6.00;99.90
612;DHT22;293;53.888;11.464;2023-04-01T11:55:28;6.00;99.90
612;DHT22;293;53.888;11.464;2023-04-01T11:58:21;6.00;99.90
612;DHT22;293;53.888;11.464;2023-04-01T12:04:06;6.10;99.90
612;DHT22;293;53.888;11.464;2023-04-01T12:06:44;6.10;99.90
612;DHT22;293;53.888;11.464;2023-04-01T12:09:21;6.00;99.90
612;DHT22;293;53.888;11.464;2023-04-01T12:12:00;6.00;99.90
612;DHT22;293;53.888;11.464;2023-04-01T12:14:36;6.10;99.90
612;DHT22;293;53.888;11.464;2023-04-01T12:17:14;6.10;99.90
612;DHT22;293;53.888;11.464;2023-04-01T12:19:47;6.00;99.90
612;DHT22;293;53.888;11.464;2023-04-01T12:22:35;5.90;99.90
612;DHT22;293;53.888;11.464;2023-04-01T12:25:16;5.90;99.90
612;DHT22;293;53.888;11.464;2023-04-01T12:27:53;5.90;99.90
612;DHT22;293;53.888;11.464;2023-04-01T12:30:35;5.90;99.90
612;DHT22;293;53.888;11.464;2023-04-01T12:36:13;6.00;99.90
612;DHT22;293;53.888;11.464;2023-04-01T12:38:51;6.00;99.90
612;DHT22;293;53.888;11.464;2023-04-01T12:41:32;5.90;99.90
612;DHT22;293;53.888;11.464;2023-04-01T12:49:55;6.00;99.90
612;DHT22;293;53.888;11.464;2023-04-01T12:52:31;6.00;99.90
612;DHT22;293;53.888;11.464;2023-04-01T12:55:23;6.00;99.90
612;DHT22;293;53.888;11.464;2023-04-01T12:58:17;6.00;99.90
612;DHT22;293;53.888;11.464;2023-04-01T13:01:15;5.90;99.90
612;DHT22;293;53.888;11.464;2023-04-01T13:07:02;6.10;99.90
612;DHT22;293;53.888;11.464;2023-04-01T13:09:39;6.10;99.90
612;DHT22;293;53.888;11.464;2023-04-01T13:12:30;6.10;99.90
612;DHT22;293;53.888;11.464;2023-04-01T13:15:14;6.10;99.90
612;DHT22;293;53.888;11.464;2023-04-01T13:17:52;6.20;99.90
612;DHT22;293;53.888;11.464;2023-04-01T13:20:32;6.20;99.90
612;DHT22;293;53.888;11.464;2023-04-01T13:23:09;6.10;99.90
612;DHT22;293;53.888;11.464;2023-04-01T13:25:45;6.10;99.90
612;DHT22;293;53.888;11.464;2023-04-01T13:28:18;6.10;99.90
612;DHT22;293;53.888;11.464;2023-04-01T13:30:52;6.20;99.90
612;DHT22;293;53.888;11.464;2023-04-01T13:33:27;6.20;99.90
612;DHT22;293;53.888;11.464;2023-04-01T13:36:07;6.10;99.90
612;DHT22;293;53.888;11.464;2023-04-01T13:39:02;6.00;99.90
612;DHT22;293;53.888;11.464;2023-04-01T13:41:39;6.00;99.90
612;DHT22;293;53.888;11.464;2023-04-01T13:44:12;6.00;99.90
612;DHT22;293;53.888;11.464;2023-04-01T13:47:02;6.00;99.90
612;DHT22;293;53.888;11.464;2023-04-01T13:49:39;6.10;99.90
612;DHT22;293;53.888;11.464;2023-04-01T13:52:31;6.00;99.90
612;DHT22;293;53.888;11.464;2023-04-01T13:55:25;6.00;99.90
612;DHT22;293;53.888;11.464;2023-04-01T13:58:11;6.00;99.90
612;DHT22;293;53.888;11.464;2023-04-01T14:00:50;6.00;99.90
612;DHT22;293;53.888;11.464;2023-04-01T14:03:27;6.00;99.90
612;DHT22;293;53.888;11.464;2023-04-01T14:06:05;6.00;99.90
612;DHT22;293;53.888;11.464;2023-04-01T14:08:48;6.00;99.90
612;DHT22;293;53.888;11.464;2023-04-01T14:11:27;6.00;99.90
612;DHT22;293;53.888;11.464;2023-04-01T14:14:05;6.00;99.90
612;DHT22;293;53.888;11.464;2023-04-01T14:17:08;5.90;99.90
612;DHT22;293;53.888;11.464;2023-04-01T14:20:02;6.00;99.90
612;DHT22;293;53.888;11.464;2023-04-01T14:22:39;5.90;99.90
612;DHT22;293;53.888;11.464;2023-04-01T14:25:38;6.00;99.90
612;DHT22;293;53.888;11.464;2023-04-01T14:28:14;6.00;99.90
612;DHT22;293;53.888;11.464;2023-04-01T14:30:55;5.90;99.90
612;DHT22;293;53.888;11.464;2023-04-01T14:33:37;6.00;99.90
612;DHT22;293;53.888;11.464;2023-04-01T14:36:29;6.00;99.90
612;DHT22;293;53.888;11.464;2023-04-01T14:39:10;6.10;99.90
612;DHT22;293;53.888;11.464;2023-04-01T14:41:47;6.10;99.90
612;DHT22;293;53.888;11.464;2023-04-01T14:44:44;6.00;99.90
612;DHT22;293;53.888;11.464;2023-04-01T14:47:28;6.00;99.90
612;DHT22;293;53.888;11.464;2023-04-01T14:50:06;6.00;99.90
612;DHT22;293;53.888;11.464;2023-04-01T14:52:38;6.00;99.90
612;DHT22;293;53.888;11.464;2023-04-01T14:55:21;5.90;99.90
612;DHT22;293;53.888;11.464;2023-04-01T14:57:59;6.00;99.90
612;DHT22;293;53.888;11.464;2023-04-01T15:00:27;5.90;99.90
612;DHT22;293;53.888;11.464;2023-04-01T15:03:09;6.00;99.90
612;DHT22;293;53.888;11.464;2023-04-01T15:05:48;5.90;99.90
612;DHT22;293;53.888;11.464;2023-04-01T15:08:19;5.80;99.90
612;DHT22;293;53.888;11.464;2023-04-01T15:11:05;5.80;99.90
612;DHT22;293;53.888;11.464;2023-04-01T15:13:59;5.70;99.90
612;DHT22;293;53.888;11.464;2023-04-01T15:16:32;5.70;99.90
612;DHT22;293;53.888;11.464;2023-04-01T15:19:09;5.70;99.90
612;DHT22;293;53.888;11.464;2023-04-01T15:21:59;5.60;99.90
612;DHT22;293;53.888;11.464;2023-04-01T15:24:41;5.70;99.90
612;DHT22;293;53.888;11.464;2023-04-01T15:27:18;5.70;99.90
612;DHT22;293;53.888;11.464;2023-04-01T15:29:56;5.70;99.90
612;DHT22;293;53.888;11.464;2023-04-01T15:32:32;5.70;99.90
612;DHT22;293;53.888;11.464;2023-04-01T15:35:17;5.70;99.90
612;DHT22;293;53.888;11.464;2023-04-01T15:37:52;5.60;99.90
612;DHT22;293;53.888;11.464;2023-04-01T15:40:24;5.60;99.90
612;DHT22;293;53.888;11.464;2023-04-01T15:43:07;5.60;99.90
612;DHT22;293;53.888;11.464;2023-04-01T15:45:42;5.70;99.90
612;DHT22;293;53.888;11.464;2023-04-01T15:48:25;5.80;99.90
612;DHT22;293;53.888;11.464;2023-04-01T15:51:07;5.70;99.90
612;DHT22;293;53.888;11.464;2023-04-01T15:54:00;5.60;99.90
612;DHT22;293;53.888;11.464;2023-04-01T15:56:45;5.60;99.90
612;DHT22;293;53.888;11.464;2023-04-01T15:59:22;5.70;99.90
612;DHT22;293;53.888;11.464;2023-04-01T16:01:58;5.60;99.90
612;DHT22;293;53.888;11.464;2023-04-01T16:04:36;5.60;99.90
612;DHT22;293;53.888;11.464;2023-04-01T16:07:19;5.60;99.90
612;DHT22;293;53.888;11.464;2023-04-01T16:10:04;5.60;99.90
612;DHT22;293;53.888;11.464;2023-04-01T16:12:50;5.50;99.90
612;DHT22;293;53.888;11.464;2023-04-01T16:15:26;5.50;99.90
612;DHT22;293;53.888;11.464;2023-04-01T16:18:26;5.50;99.90
612;DHT22;293;53.888;11.464;2023-04-01T16:21:02;5.50;99.90
612;DHT22;293;53.888;11.464;2023-04-01T16:23:37;5.50;99.90
612;DHT22;293;53.888;11.464;2023-04-01T16:26:08;5.40;99.90
612;DHT22;293;53.888;11.464;2023-04-01T16:28:44;5.40;99.90
612;DHT22;293;53.888;11.464;2023-04-01T16:31:29;5.30;99.90
612;DHT22;293;53.888;11.464;2023-04-01T16:34:02;5.30;99.90
612;DHT22;293;53.888;11.464;2023-04-01T16:36:35;5.30;99.90
612;DHT22;293;53.888;11.464;2023-04-01T16:39:17;5.40;99.90
612;DHT22;293;53.888;11.464;2023-04-01T16:41:49;5.40;99.90
612;DHT22;293;53.888;11.464;2023-04-01T16:44:19;5.40;99.90
612;DHT22;293;53.888;11.464;2023-04-01T16:46:50;5.40;99.90
612;DHT22;293;53.888;11.464;2023-04-01T16:49:29;5.40;99.90
612;DHT22;293;53.888;11.464;2023-04-01T16:52:12;5.30;99.90
612;DHT22;293;53.888;11.464;2023-04-01T16:54:47;5.30;99.90
612;DHT22;293;53.888;11.464;2023-04-01T16:57:24;5.30;99.90
612;DHT22;293;53.888;11.464;2023-04-01T16:59:56;5.20;99.90
612;DHT22;293;53.888;11.464;2023-04-01T17:02:30;5.10;99.90
612;DHT22;293;53.888;11.464;2023-04-01T17:05:05;5.10;99.90
612;DHT22;293;53.888;11.464;2023-04-01T17:07:42;5.10;99.90
612;DHT22;293;53.888;11.464;2023-04-01T17:10:25;5.20;99.90
612;DHT22;293;53.888;11.464;2023-04-01T17:13:13;5.20;99.90
612;DHT22;293;53.888;11.464;2023-04-01T17:15:46;5.30;99.90
612;DHT22;293;53.888;11.464;2023-04-01T17:18:23;5.20;99.90
612;DHT22;293;53.888;11.464;2023-04-01T17:20:56;5.30;99.90
612;DHT22;293;53.888;11.464;2023-04-01T17:23:31;5.30;99.90
612;DHT22;293;53.888;11.464;2023-04-01T17:26:08;5.30;99.90
612;DHT22;293;53.888;11.464;2023-04-01T17:28:47;5.20;99.90
612;DHT22;293;53.888;11.464;2023-04-01T17:31:26;5.20;99.90
612;DHT22;293;53.888;11.464;2023-04-01T17:34:17;5.10;99.90
612;DHT22;293;53.888;11.464;2023-04-01T17:36:59;5.10;99.90
612;DHT22;293;53.888;11.464;2023-04-01T17:39:39;5.10;99.90
612;DHT22;293;53.888;11.464;2023-04-01T17:42:13;5.10;99.90
612;DHT22;293;53.888;11.464;2023-04-01T17:44:49;5.10;99.90
612;DHT22;293;53.888;11.464;2023-04-01T17:47:30;5.10;99.90
612;DHT22;293;53.888;11.464;2023-04-01T17:50:08;5.00;99.90
612;DHT22;293;53.888;11.464;2023-04-01T17:52:42;4.90;99.90
612;DHT22;293;53.888;11.464;2023-04-01T17:55:28;4.90;99.90
612;DHT22;293;53.888;11.464;2023-04-01T17:58:03;4.80;99.90
612;DHT22;293;53.888;11.464;2023-04-01T18:00:39;4.80;99.90
612;DHT22;293;53.888;11.464;2023-04-01T18:03:23;4.80;99.90
612;DHT22;293;53.888;11.464;2023-04-01T18:06:01;4.70;99.90
612;DHT22;293;53.888;11.464;2023-04-01T18:08:48;4.70;99.90
612;DHT22;293;53.888;11.464;2023-04-01T18:11:24;4.70;99.90
612;DHT22;293;53.888;11.464;2023-04-01T18:14:07;4.70;99.90
612;DHT22;293;53.888;11.464;2023-04-01T18:16:47;4.70;99.90
612;DHT22;293;53.888;11.464;2023-04-01T18:19:26;4.60;99.90
612;DHT22;293;53.888;11.464;2023-04-01T18:22:03;4.60;99.90
612;DHT22;293;53.888;11.464;2023-04-01T18:24:33;4.60;99.90
612;DHT22;293;53.888;11.464;2023-04-01T18:27:06;4.60;99.90
612;DHT22;293;53.888;11.464;2023-04-01T18:29:40;4.70;99.90